sensor_id;sensor_type;location;lat;lon;timestamp;P1;durP1;ratioP1;P2;durP2;ratioP2
78324;SDS011;67584;51.400;6.692;2023-12-20T00:01:32;8.00;;;5.22;;
78324;SDS011;67584;51.400;6.692;2023-12-20T00:03:57;7.75;;;4.63;;
78324;SDS011;67584;51.400;6.692;2023-12-20T00:06:23;9.43;;;4.38;;
78324;SDS011;67584;51.400;6.692;2023-12-20T00:08:49;9.65;;;5.10;;
78324;SDS011;67584;51.400;6.692;2023-12-20T00:11:14;9.98;;;4.80;;
78324;SDS011;67584;51.400;6.692;2023-12-20T00:13:40;12.52;;;5.18;;
78324;SDS011;67584;51.400;6.692;2023-12-20T00:16:06;8.40;;;5.25;;
78324;SDS011;67584;51.400;6.692;2023-12-20T00:18:31;11.80;;;5.70;;
78324;SDS011;67584;51.400;6.692;2023-12-20T00:20:57;9.07;;;5.75;;
78324;SDS011;67584;51.400;6.692;2023-12-20T00:23:23;11.57;;;5.18;;
78324;SDS011;67584;51.400;6.692;2023-12-20T00:25:48;8.90;;;5.22;;
78324;SDS011;67584;51.400;6.692;2023-12-20T00:28:14;10.63;;;5.18;;
78324;SDS011;67584;51.400;6.692;2023-12-20T00:30:40;13.18;;;5.38;;
78324;SDS011;67584;51.400;6.692;2023-12-20T00:33:06;14.95;;;6.03;;
78324;SDS011;67584;51.400;6.692;2023-12-20T00:35:31;11.73;;;5.80;;
78324;SDS011;67584;51.400;6.692;2023-12-20T00:37:58;13.60;;;6.05;;
78324;SDS011;67584;51.400;6.692;2023-12-20T00:40:24;11.82;;;6.00;;
78324;SDS011;67584;51.400;6.692;2023-12-20T00:42:50;10.85;;;6.40;;
78324;SDS011;67584;51.400;6.692;2023-12-20T00:45:16;13.45;;;5.97;;
78324;SDS011;67584;51.400;6.692;2023-12-20T00:47:41;18.92;;;6.40;;
78324;SDS011;67584;51.400;6.692;2023-12-20T00:50:07;7.03;;;4.22;;
78324;SDS011;67584;51.400;6.692;2023-12-20T00:52:34;9.27;;;4.95;;
78324;SDS011;67584;51.400;6.692;2023-12-20T00:55:00;9.40;;;5.60;;
78324;SDS011;67584;51.400;6.692;2023-12-20T00:57:25;12.10;;;6.18;;
78324;SDS011;67584;51.400;6.692;2023-12-20T00:59:51;9.15;;;4.75;;
78324;SDS011;67584;51.400;6.692;2023-12-20T01:02:16;9.60;;;6.32;;
78324;SDS011;67584;51.400;6.692;2023-12-20T01:04:42;8.60;;;4.85;;
78324;SDS011;67584;51.400;6.692;2023-12-20T01:07:08;5.35;;;4.68;;
78324;SDS011;67584;51.400;6.692;2023-12-20T01:09:34;9.35;;;5.63;;
78324;SDS011;67584;51.400;6.692;2023-12-20T01:11:59;13.45;;;7.03;;
78324;SDS011;67584;51.400;6.692;2023-12-20T01:14:25;9.93;;;4.68;;
78324;SDS011;67584;51.400;6.692;2023-12-20T01:16:51;10.77;;;5.43;;
78324;SDS011;67584;51.400;6.692;2023-12-20T01:19:17;10.18;;;5.38;;
78324;SDS011;67584;51.400;6.692;2023-12-20T01:21:42;9.68;;;4.65;;
78324;SDS011;67584;51.400;6.692;2023-12-20T01:24:08;12.25;;;6.20;;
78324;SDS011;67584;51.400;6.692;2023-12-20T01:26:34;9.68;;;5.35;;
78324;SDS011;67584;51.400;6.692;2023-12-20T01:28:59;8.30;;;5.75;;
78324;SDS011;67584;51.400;6.692;2023-12-20T01:31:26;14.55;;;5.82;;
78324;SDS011;67584;51.400;6.692;2023-12-20T01:33:52;10.13;;;5.55;;
78324;SDS011;67584;51.400;6.692;2023-12-20T01:36:18;11.82;;;6.82;;
78324;SDS011;67584;51.400;6.692;2023-12-20T01:38:45;7.45;;;4.28;;
78324;SDS011;67584;51.400;6.692;2023-12-20T01:41:10;11.27;;;5.60;;
78324;SDS011;67584;51.400;6.692;2023-12-20T01:43:36;7.65;;;4.50;;
78324;SDS011;67584;51.400;6.692;2023-12-20T01:46:02;11.68;;;5.47;;
78324;SDS011;67584;51.400;6.692;2023-12-20T01:48:28;10.82;;;4.95;;
78324;SDS011;67584;51.400;6.692;2023-12-20T01:50:57;9.77;;;5.82;;
78324;SDS011;67584;51.400;6.692;2023-12-20T01:53:24;8.07;;;4.97;;
78324;SDS011;67584;51.400;6.692;2023-12-20T01:55:52;12.38;;;5.07;;
78324;SDS011;67584;51.400;6.692;2023-12-20T01:58:21;16.52;;;5.93;;
78324;SDS011;67584;51.400;6.692;2023-12-20T02:00:48;9.88;;;4.43;;
78324;SDS011;67584;51.400;6.692;2023-12-20T02:03:14;7.15;;;4.35;;
78324;SDS011;67584;51.400;6.692;2023-12-20T02:05:40;13.60;;;6.30;;
78324;SDS011;67584;51.400;6.692;2023-12-20T02:08:06;11.20;;;5.10;;
78324;SDS011;67584;51.400;6.692;2023-12-20T02:10:32;8.55;;;4.88;;
78324;SDS011;67584;51.400;6.692;2023-12-20T02:12:58;9.13;;;5.22;;
78324;SDS011;67584;51.400;6.692;2023-12-20T02:15:24;10.40;;;4.70;;
78324;SDS011;67584;51.400;6.692;2023-12-20T02:17:49;12.73;;;6.22;;
78324;SDS011;67584;51.400;6.692;2023-12-20T02:20:15;8.38;;;4.95;;
78324;SDS011;67584;51.400;6.692;2023-12-20T02:22:41;12.07;;;5.10;;
78324;SDS011;67584;51.400;6.692;2023-12-20T02:25:07;8.73;;;4.57;;
78324;SDS011;67584;51.400;6.692;2023-12-20T02:27:33;12.25;;;5.15;;
78324;SDS011;67584;51.400;6.692;2023-12-20T02:30:00;6.97;;;4.55;;
78324;SDS011;67584;51.400;6.692;2023-12-20T02:32:26;8.02;;;4.78;;
78324;SDS011;67584;51.400;6.692;2023-12-20T02:34:52;13.70;;;4.70;;
78324;SDS011;67584;51.400;6.692;2023-12-20T02:37:18;13.10;;;5.55;;
78324;SDS011;67584;51.400;6.692;2023-12-20T02:39:44;7.25;;;4.38;;
78324;SDS011;67584;51.400;6.692;2023-12-20T02:42:10;9.60;;;5.07;;
78324;SDS011;67584;51.400;6.692;2023-12-20T02:44:35;9.60;;;4.63;;
78324;SDS011;67584;51.400;6.692;2023-12-20T02:47:01;10.43;;;3.95;;
78324;SDS011;67584;51.400;6.692;2023-12-20T02:49:27;7.15;;;3.95;;
78324;SDS011;67584;51.400;6.692;2023-12-20T02:51:53;8.43;;;3.80;;
78324;SDS011;67584;51.400;6.692;2023-12-20T02:54:19;12.95;;;4.20;;
78324;SDS011;67584;51.400;6.692;2023-12-20T02:56:44;9.98;;;4.47;;
78324;SDS011;67584;51.400;6.692;2023-12-20T02:59:10;7.10;;;3.38;;
78324;SDS011;67584;51.400;6.692;2023-12-20T03:01:37;6.72;;;3.20;;
78324;SDS011;67584;51.400;6.692;2023-12-20T03:04:10;10.30;;;3.80;;
78324;SDS011;67584;51.400;6.692;2023-12-20T03:06:36;6.80;;;3.08;;
78324;SDS011;67584;51.400;6.692;2023-12-20T03:09:02;8.10;;;2.92;;
78324;SDS011;67584;51.400;6.692;2023-12-20T03:11:28;6.57;;;3.42;;
78324;SDS011;67584;51.400;6.692;2023-12-20T03:13:54;8.70;;;3.15;;
78324;SDS011;67584;51.400;6.692;2023-12-20T03:16:20;3.75;;;2.90;;
78324;SDS011;67584;51.400;6.692;2023-12-20T03:18:46;2.88;;;2.08;;
78324;SDS011;67584;51.400;6.692;2023-12-20T03:21:12;6.38;;;2.70;;
78324;SDS011;67584;51.400;6.692;2023-12-20T03:23:37;4.60;;;2.33;;
78324;SDS011;67584;51.400;6.692;2023-12-20T03:26:03;8.55;;;3.67;;
78324;SDS011;67584;51.400;6.692;2023-12-20T03:28:32;4.35;;;2.05;;
78324;SDS011;67584;51.400;6.692;2023-12-20T03:30:58;8.85;;;2.53;;
78324;SDS011;67584;51.400;6.692;2023-12-20T03:33:24;7.68;;;2.78;;
78324;SDS011;67584;51.400;6.692;2023-12-20T03:35:49;5.70;;;2.30;;
78324;SDS011;67584;51.400;6.692;2023-12-20T03:38:15;8.77;;;3.10;;
78324;SDS011;67584;51.400;6.692;2023-12-20T03:40:41;3.85;;;2.05;;
78324;SDS011;67584;51.400;6.692;2023-12-20T03:43:07;5.13;;;2.40;;
78324;SDS011;67584;51.400;6.692;2023-12-20T03:45:33;5.20;;;2.13;;
78324;SDS011;67584;51.400;6.692;2023-12-20T03:47:58;9.50;;;3.67;;
78324;SDS011;67584;51.400;6.692;2023-12-20T03:50:24;7.53;;;2.30;;
78324;SDS011;67584;51.400;6.692;2023-12-20T03:52:50;4.50;;;2.13;;
78324;SDS011;67584;51.400;6.692;2023-12-20T03:55:16;3.85;;;2.30;;
78324;SDS011;67584;51.400;6.692;2023-12-20T03:57:41;5.63;;;2.15;;
78324;SDS011;67584;51.400;6.692;2023-12-20T04:00:07;7.28;;;2.55;;
78324;SDS011;67584;51.400;6.692;2023-12-20T04:02:40;9.18;;;3.30;;
78324;SDS011;67584;51.400;6.692;2023-12-20T04:05:07;3.10;;;2.28;;
78324;SDS011;67584;51.400;6.692;2023-12-20T04:07:34;7.20;;;3.03;;
78324;SDS011;67584;51.400;6.692;2023-12-20T04:10:00;12.77;;;3.10;;
78324;SDS011;67584;51.400;6.692;2023-12-20T04:12:29;5.25;;;2.95;;
78324;SDS011;67584;51.400;6.692;2023-12-20T04:14:56;8.02;;;2.88;;
78324;SDS011;67584;51.400;6.692;2023-12-20T04:17:22;7.40;;;3.00;;
78324;SDS011;67584;51.400;6.692;2023-12-20T04:19:48;14.60;;;3.25;;
78324;SDS011;67584;51.400;6.692;2023-12-20T04:22:14;6.18;;;2.83;;
78324;SDS011;67584;51.400;6.692;2023-12-20T04:24:40;5.70;;;2.78;;
78324;SDS011;67584;51.400;6.692;2023-12-20T04:27:07;10.82;;;2.53;;
78324;SDS011;67584;51.400;6.692;2023-12-20T04:29:33;9.23;;;3.08;;
78324;SDS011;67584;51.400;6.692;2023-12-20T04:31:59;6.18;;;3.17;;
78324;SDS011;67584;51.400;6.692;2023-12-20T04:34:25;4.32;;;2.40;;
78324;SDS011;67584;51.400;6.692;2023-12-20T04:36:51;4.55;;;3.65;;
78324;SDS011;67584;51.400;6.692;2023-12-20T04:39:17;6.35;;;3.17;;
78324;SDS011;67584;51.400;6.692;2023-12-20T04:41:42;8.90;;;3.67;;
78324;SDS011;67584;51.400;6.692;2023-12-20T04:44:08;8.38;;;3.75;;
78324;SDS011;67584;51.400;6.692;2023-12-20T04:46:34;4.75;;;2.97;;
78324;SDS011;67584;51.400;6.692;2023-12-20T04:49:00;9.05;;;4.22;;
78324;SDS011;67584;51.400;6.692;2023-12-20T04:51:26;8.10;;;3.67;;
78324;SDS011;67584;51.400;6.692;2023-12-20T04:53:52;11.75;;;3.88;;
78324;SDS011;67584;51.400;6.692;2023-12-20T04:56:18;5.88;;;3.05;;
78324;SDS011;67584;51.400;6.692;2023-12-20T04:58:43;8.07;;;3.55;;
78324;SDS011;67584;51.400;6.692;2023-12-20T05:01:09;9.98;;;3.90;;
78324;SDS011;67584;51.400;6.692;2023-12-20T05:03:35;8.95;;;4.72;;
78324;SDS011;67584;51.400;6.692;2023-12-20T05:06:01;10.98;;;4.20;;
78324;SDS011;67584;51.400;6.692;2023-12-20T05:08:27;8.27;;;3.33;;
78324;SDS011;67584;51.400;6.692;2023-12-20T05:10:53;5.78;;;3.10;;
78324;SDS011;67584;51.400;6.692;2023-12-20T05:13:19;7.25;;;3.55;;
78324;SDS011;67584;51.400;6.692;2023-12-20T05:15:45;9.68;;;4.32;;
78324;SDS011;67584;51.400;6.692;2023-12-20T05:18:11;6.82;;;3.50;;
78324;SDS011;67584;51.400;6.692;2023-12-20T05:20:38;12.50;;;4.60;;
78324;SDS011;67584;51.400;6.692;2023-12-20T05:23:03;10.80;;;3.85;;
78324;SDS011;67584;51.400;6.692;2023-12-20T05:25:29;5.03;;;3.20;;
78324;SDS011;67584;51.400;6.692;2023-12-20T05:27:55;12.88;;;4.28;;
78324;SDS011;67584;51.400;6.692;2023-12-20T05:30:21;8.15;;;3.70;;
78324;SDS011;67584;51.400;6.692;2023-12-20T05:32:47;8.32;;;3.85;;
78324;SDS011;67584;51.400;6.692;2023-12-20T05:35:13;7.78;;;4.13;;
78324;SDS011;67584;51.400;6.692;2023-12-20T05:37:39;9.57;;;3.40;;
78324;SDS011;67584;51.400;6.692;2023-12-20T05:40:05;7.50;;;3.60;;
78324;SDS011;67584;51.400;6.692;2023-12-20T05:42:31;8.20;;;4.15;;
78324;SDS011;67584;51.400;6.692;2023-12-20T05:44:56;12.13;;;4.15;;
78324;SDS011;67584;51.400;6.692;2023-12-20T05:47:22;8.43;;;4.47;;
78324;SDS011;67584;51.400;6.692;2023-12-20T05:49:48;6.18;;;3.15;;
78324;SDS011;67584;51.400;6.692;2023-12-20T05:52:15;9.18;;;3.50;;
78324;SDS011;67584;51.400;6.692;2023-12-20T05:54:40;7.00;;;3.42;;
78324;SDS011;67584;51.400;6.692;2023-12-20T05:57:06;10.23;;;4.45;;
78324;SDS011;67584;51.400;6.692;2023-12-20T05:59:32;7.25;;;4.40;;
78324;SDS011;67584;51.400;6.692;2023-12-20T06:01:57;9.75;;;4.07;;
78324;SDS011;67584;51.400;6.692;2023-12-20T06:04:23;8.60;;;3.88;;
78324;SDS011;67584;51.400;6.692;2023-12-20T06:06:48;7.90;;;3.92;;
78324;SDS011;67584;51.400;6.692;2023-12-20T06:09:14;6.95;;;4.00;;
78324;SDS011;67584;51.400;6.692;2023-12-20T06:11:40;7.25;;;3.67;;
78324;SDS011;67584;51.400;6.692;2023-12-20T06:14:06;8.93;;;4.25;;
78324;SDS011;67584;51.400;6.692;2023-12-20T06:16:31;6.97;;;4.38;;
78324;SDS011;67584;51.400;6.692;2023-12-20T06:18:57;12.95;;;4.85;;
78324;SDS011;67584;51.400;6.692;2023-12-20T06:21:23;11.88;;;5.32;;
78324;SDS011;67584;51.400;6.692;2023-12-20T06:23:48;12.43;;;5.32;;
78324;SDS011;67584;51.400;6.692;2023-12-20T06:26:14;8.25;;;4.25;;
78324;SDS011;67584;51.400;6.692;2023-12-20T06:28:40;19.35;;;4.60;;
78324;SDS011;67584;51.400;6.692;2023-12-20T06:31:05;11.20;;;5.50;;
78324;SDS011;67584;51.400;6.692;2023-12-20T06:33:31;14.13;;;4.93;;
78324;SDS011;67584;51.400;6.692;2023-12-20T06:35:57;9.35;;;5.03;;
78324;SDS011;67584;51.400;6.692;2023-12-20T06:38:22;9.85;;;4.47;;
78324;SDS011;67584;51.400;6.692;2023-12-20T06:40:48;9.80;;;3.85;;
78324;SDS011;67584;51.400;6.692;2023-12-20T06:43:14;8.90;;;4.00;;
78324;SDS011;67584;51.400;6.692;2023-12-20T06:45:42;5.45;;;3.60;;
78324;SDS011;67584;51.400;6.692;2023-12-20T06:48:08;8.57;;;3.45;;
78324;SDS011;67584;51.400;6.692;2023-12-20T06:50:36;9.45;;;3.83;;
78324;SDS011;67584;51.400;6.692;2023-12-20T06:53:05;7.75;;;2.80;;
78324;SDS011;67584;51.400;6.692;2023-12-20T06:55:32;10.48;;;3.88;;
78324;SDS011;67584;51.400;6.692;2023-12-20T06:58:02;7.95;;;3.88;;
78324;SDS011;67584;51.400;6.692;2023-12-20T07:00:29;7.25;;;3.58;;
78324;SDS011;67584;51.400;6.692;2023-12-20T07:02:55;4.97;;;3.40;;
78324;SDS011;67584;51.400;6.692;2023-12-20T07:05:21;12.02;;;4.40;;
78324;SDS011;67584;51.400;6.692;2023-12-20T07:07:47;5.07;;;4.28;;
78324;SDS011;67584;51.400;6.692;2023-12-20T07:10:13;8.10;;;4.55;;
78324;SDS011;67584;51.400;6.692;2023-12-20T07:12:39;9.70;;;4.63;;
78324;SDS011;67584;51.400;6.692;2023-12-20T07:15:05;9.00;;;3.55;;
78324;SDS011;67584;51.400;6.692;2023-12-20T07:17:32;7.60;;;3.65;;
78324;SDS011;67584;51.400;6.692;2023-12-20T07:19:58;9.07;;;3.90;;
78324;SDS011;67584;51.400;6.692;2023-12-20T07:22:28;6.40;;;3.78;;
78324;SDS011;67584;51.400;6.692;2023-12-20T07:24:57;9.43;;;4.22;;
78324;SDS011;67584;51.400;6.692;2023-12-20T07:27:23;8.65;;;3.88;;
78324;SDS011;67584;51.400;6.692;2023-12-20T07:29:52;8.18;;;3.15;;
78324;SDS011;67584;51.400;6.692;2023-12-20T07:32:18;16.00;;;4.78;;
78324;SDS011;67584;51.400;6.692;2023-12-20T07:34:44;9.80;;;4.40;;
78324;SDS011;67584;51.400;6.692;2023-12-20T07:37:10;9.68;;;4.03;;
78324;SDS011;67584;51.400;6.692;2023-12-20T07:39:40;13.88;;;4.30;;
78324;SDS011;67584;51.400;6.692;2023-12-20T07:42:06;6.93;;;3.53;;
78324;SDS011;67584;51.400;6.692;2023-12-20T07:44:33;5.95;;;3.47;;
78324;SDS011;67584;51.400;6.692;2023-12-20T07:47:00;13.00;;;4.20;;
78324;SDS011;67584;51.400;6.692;2023-12-20T07:49:26;7.93;;;3.72;;
78324;SDS011;67584;51.400;6.692;2023-12-20T07:51:52;7.22;;;4.03;;
78324;SDS011;67584;51.400;6.692;2023-12-20T07:54:18;9.27;;;4.63;;
78324;SDS011;67584;51.400;6.692;2023-12-20T07:56:45;7.88;;;4.22;;
78324;SDS011;67584;51.400;6.692;2023-12-20T07:59:11;11.00;;;4.72;;
78324;SDS011;67584;51.400;6.692;2023-12-20T08:01:37;13.27;;;4.78;;
78324;SDS011;67584;51.400;6.692;2023-12-20T08:04:03;12.85;;;5.60;;
78324;SDS011;67584;51.400;6.692;2023-12-20T08:06:29;9.68;;;4.30;;
78324;SDS011;67584;51.400;6.692;2023-12-20T08:08:54;9.40;;;5.00;;
78324;SDS011;67584;51.400;6.692;2023-12-20T08:11:20;12.93;;;5.28;;
78324;SDS011;67584;51.400;6.692;2023-12-20T08:13:46;9.63;;;5.20;;
78324;SDS011;67584;51.400;6.692;2023-12-20T08:16:15;10.07;;;5.28;;
78324;SDS011;67584;51.400;6.692;2023-12-20T08:18:43;6.00;;;4.32;;
78324;SDS011;67584;51.400;6.692;2023-12-20T08:21:12;9.43;;;4.40;;
78324;SDS011;67584;51.400;6.692;2023-12-20T08:23:40;7.85;;;3.75;;
78324;SDS011;67584;51.400;6.692;2023-12-20T08:26:06;8.70;;;4.55;;
78324;SDS011;67584;51.400;6.692;2023-12-20T08:28:33;6.90;;;3.97;;
78324;SDS011;67584;51.400;6.692;2023-12-20T08:30:59;8.23;;;4.40;;
78324;SDS011;67584;51.400;6.692;2023-12-20T08:33:25;6.25;;;4.20;;
78324;SDS011;67584;51.400;6.692;2023-12-20T08:35:51;5.78;;;3.30;;
78324;SDS011;67584;51.400;6.692;2023-12-20T08:38:17;8.35;;;4.40;;
78324;SDS011;67584;51.400;6.692;2023-12-20T08:40:43;4.97;;;2.90;;
78324;SDS011;67584;51.400;6.692;2023-12-20T08:43:09;9.68;;;3.72;;
78324;SDS011;67584;51.400;6.692;2023-12-20T08:45:35;8.32;;;4.22;;
78324;SDS011;67584;51.400;6.692;2023-12-20T08:48:00;6.25;;;3.22;;
78324;SDS011;67584;51.400;6.692;2023-12-20T08:50:26;6.70;;;3.00;;
78324;SDS011;67584;51.400;6.692;2023-12-20T08:52:52;7.55;;;3.38;;
78324;SDS011;67584;51.400;6.692;2023-12-20T08:55:18;7.80;;;3.75;;
78324;SDS011;67584;51.400;6.692;2023-12-20T08:57:45;10.32;;;4.47;;
78324;SDS011;67584;51.400;6.692;2023-12-20T09:00:10;4.30;;;3.20;;
78324;SDS011;67584;51.400;6.692;2023-12-20T09:02:37;8.73;;;3.30;;
78324;SDS011;67584;51.400;6.692;2023-12-20T09:05:03;7.85;;;4.07;;
78324;SDS011;67584;51.400;6.692;2023-12-20T09:07:29;9.98;;;3.70;;
78324;SDS011;67584;51.400;6.692;2023-12-20T09:09:57;8.52;;;3.65;;
78324;SDS011;67584;51.400;6.692;2023-12-20T09:12:23;6.68;;;3.03;;
78324;SDS011;67584;51.400;6.692;2023-12-20T09:14:50;6.32;;;3.53;;
78324;SDS011;67584;51.400;6.692;2023-12-20T09:17:16;15.65;;;4.45;;
78324;SDS011;67584;51.400;6.692;2023-12-20T09:19:43;7.78;;;3.47;;
78324;SDS011;67584;51.400;6.692;2023-12-20T09:22:09;7.15;;;2.95;;
78324;SDS011;67584;51.400;6.692;2023-12-20T09:24:35;7.07;;;2.80;;
78324;SDS011;67584;51.400;6.692;2023-12-20T09:27:01;4.65;;;3.35;;
78324;SDS011;67584;51.400;6.692;2023-12-20T09:29:27;4.97;;;3.40;;
78324;SDS011;67584;51.400;6.692;2023-12-20T09:31:54;10.05;;;3.45;;
78324;SDS011;67584;51.400;6.692;2023-12-20T09:34:20;10.65;;;3.30;;
78324;SDS011;67584;51.400;6.692;2023-12-20T09:36:47;8.00;;;4.63;;
78324;SDS011;67584;51.400;6.692;2023-12-20T09:39:13;10.05;;;3.72;;
78324;SDS011;67584;51.400;6.692;2023-12-20T09:41:41;7.55;;;3.67;;
78324;SDS011;67584;51.400;6.692;2023-12-20T09:44:13;7.53;;;3.47;;
78324;SDS011;67584;51.400;6.692;2023-12-20T09:46:42;9.77;;;3.70;;
78324;SDS011;67584;51.400;6.692;2023-12-20T09:51:35;6.82;;;4.22;;
78324;SDS011;67584;51.400;6.692;2023-12-20T09:54:03;13.57;;;3.50;;
78324;SDS011;67584;51.400;6.692;2023-12-20T09:56:29;6.25;;;3.22;;
78324;SDS011;67584;51.400;6.692;2023-12-20T09:58:55;6.60;;;3.15;;
78324;SDS011;67584;51.400;6.692;2023-12-20T10:01:21;9.27;;;3.58;;
78324;SDS011;67584;51.400;6.692;2023-12-20T10:03:48;9.25;;;3.45;;
78324;SDS011;67584;51.400;6.692;2023-12-20T10:06:19;8.93;;;3.45;;
78324;SDS011;67584;51.400;6.692;2023-12-20T10:08:45;4.78;;;3.05;;
78324;SDS011;67584;51.400;6.692;2023-12-20T10:11:11;7.80;;;3.13;;
78324;SDS011;67584;51.400;6.692;2023-12-20T10:13:40;6.65;;;2.92;;
78324;SDS011;67584;51.400;6.692;2023-12-20T10:16:07;5.10;;;2.63;;
78324;SDS011;67584;51.400;6.692;2023-12-20T10:18:32;6.40;;;3.83;;
78324;SDS011;67584;51.400;6.692;2023-12-20T10:21:00;9.57;;;3.53;;
78324;SDS011;67584;51.400;6.692;2023-12-20T10:23:26;5.18;;;2.97;;
78324;SDS011;67584;51.400;6.692;2023-12-20T10:25:58;8.95;;;3.47;;
78324;SDS011;67584;51.400;6.692;2023-12-20T10:28:25;7.78;;;4.18;;
78324;SDS011;67584;51.400;6.692;2023-12-20T10:30:54;3.20;;;2.65;;
78324;SDS011;67584;51.400;6.692;2023-12-20T10:33:26;6.68;;;4.07;;
78324;SDS011;67584;51.400;6.692;2023-12-20T10:35:53;11.63;;;4.13;;
78324;SDS011;67584;51.400;6.692;2023-12-20T10:38:20;7.60;;;3.72;;
78324;SDS011;67584;51.400;6.692;2023-12-20T10:40:47;11.20;;;4.20;;
78324;SDS011;67584;51.400;6.692;2023-12-20T10:43:14;10.30;;;3.28;;
78324;SDS011;67584;51.400;6.692;2023-12-20T10:45:41;6.80;;;3.97;;
78324;SDS011;67584;51.400;6.692;2023-12-20T10:48:09;7.45;;;3.50;;
78324;SDS011;67584;51.400;6.692;2023-12-20T10:50:36;7.13;;;3.65;;
78324;SDS011;67584;51.400;6.692;2023-12-20T10:53:06;8.82;;;4.22;;
78324;SDS011;67584;51.400;6.692;2023-12-20T10:55:32;6.97;;;3.17;;
78324;SDS011;67584;51.400;6.692;2023-12-20T10:58:04;7.10;;;3.80;;
78324;SDS011;67584;51.400;6.692;2023-12-20T11:00:33;7.35;;;4.00;;
78324;SDS011;67584;51.400;6.692;2023-12-20T11:03:06;4.53;;;3.55;;
78324;SDS011;67584;51.400;6.692;2023-12-20T11:08:15;10.57;;;4.18;;
78324;SDS011;67584;51.400;6.692;2023-12-20T11:13:32;9.93;;;3.55;;
78324;SDS011;67584;51.400;6.692;2023-12-20T11:16:03;6.75;;;3.75;;
78324;SDS011;67584;51.400;6.692;2023-12-20T11:18:29;7.65;;;4.65;;
78324;SDS011;67584;51.400;6.692;2023-12-20T11:20:55;5.22;;;3.60;;
78324;SDS011;67584;51.400;6.692;2023-12-20T11:23:35;8.88;;;4.18;;
78324;SDS011;67584;51.400;6.692;2023-12-20T11:26:02;9.65;;;3.55;;
78324;SDS011;67584;51.400;6.692;2023-12-20T11:28:28;8.18;;;5.15;;
78324;SDS011;67584;51.400;6.692;2023-12-20T11:30:57;8.93;;;3.53;;
78324;SDS011;67584;51.400;6.692;2023-12-20T11:33:25;7.18;;;3.63;;
78324;SDS011;67584;51.400;6.692;2023-12-20T11:35:57;8.32;;;3.47;;
78324;SDS011;67584;51.400;6.692;2023-12-20T11:38:25;10.57;;;4.57;;
78324;SDS011;67584;51.400;6.692;2023-12-20T11:40:50;5.53;;;2.95;;
78324;SDS011;67584;51.400;6.692;2023-12-20T11:46:02;7.03;;;3.05;;
78324;SDS011;67584;51.400;6.692;2023-12-20T11:48:29;8.50;;;3.60;;
78324;SDS011;67584;51.400;6.692;2023-12-20T11:50:57;6.10;;;2.85;;
78324;SDS011;67584;51.400;6.692;2023-12-20T11:53:23;10.60;;;4.22;;
78324;SDS011;67584;51.400;6.692;2023-12-20T11:55:49;8.18;;;4.93;;
78324;SDS011;67584;51.400;6.692;2023-12-20T11:58:15;7.68;;;4.05;;
78324;SDS011;67584;51.400;6.692;2023-12-20T12:00:42;6.18;;;3.13;;
78324;SDS011;67584;51.400;6.692;2023-12-20T12:03:08;12.57;;;4.60;;
78324;SDS011;67584;51.400;6.692;2023-12-20T12:05:34;11.65;;;3.45;;
78324;SDS011;67584;51.400;6.692;2023-12-20T12:08:00;3.70;;;2.75;;
78324;SDS011;67584;51.400;6.692;2023-12-20T12:10:27;9.75;;;4.05;;
78324;SDS011;67584;51.400;6.692;2023-12-20T12:12:54;5.45;;;4.63;;
78324;SDS011;67584;51.400;6.692;2023-12-20T12:15:20;8.98;;;3.85;;
78324;SDS011;67584;51.400;6.692;2023-12-20T12:17:53;10.60;;;4.00;;
78324;SDS011;67584;51.400;6.692;2023-12-20T12:20:20;4.72;;;3.45;;
78324;SDS011;67584;51.400;6.692;2023-12-20T12:22:45;6.18;;;3.45;;
78324;SDS011;67584;51.400;6.692;2023-12-20T12:25:15;8.52;;;4.55;;
78324;SDS011;67584;51.400;6.692;2023-12-20T12:27:41;10.13;;;4.45;;
78324;SDS011;67584;51.400;6.692;2023-12-20T12:30:08;5.80;;;4.28;;
78324;SDS011;67584;51.400;6.692;2023-12-20T12:32:35;6.10;;;3.83;;
78324;SDS011;67584;51.400;6.692;2023-12-20T12:35:04;4.65;;;3.22;;
78324;SDS011;67584;51.400;6.692;2023-12-20T12:37:36;3.53;;;3.05;;
78324;SDS011;67584;51.400;6.692;2023-12-20T12:40:05;7.38;;;3.78;;
78324;SDS011;67584;51.400;6.692;2023-12-20T12:42:32;12.10;;;5.07;;
78324;SDS011;67584;51.400;6.692;2023-12-20T12:44:58;9.63;;;4.30;;
78324;SDS011;67584;51.400;6.692;2023-12-20T12:47:24;9.32;;;4.15;;
78324;SDS011;67584;51.400;6.692;2023-12-20T12:49:50;9.15;;;4.07;;
78324;SDS011;67584;51.400;6.692;2023-12-20T12:52:17;9.13;;;4.50;;
78324;SDS011;67584;51.400;6.692;2023-12-20T12:54:43;6.85;;;4.80;;
78324;SDS011;67584;51.400;6.692;2023-12-20T12:57:10;14.85;;;5.47;;
78324;SDS011;67584;51.400;6.692;2023-12-20T12:59:36;6.85;;;4.10;;
78324;SDS011;67584;51.400;6.692;2023-12-20T13:02:02;11.38;;;5.03;;
78324;SDS011;67584;51.400;6.692;2023-12-20T13:04:28;6.15;;;3.78;;
78324;SDS011;67584;51.400;6.692;2023-12-20T13:06:53;5.78;;;4.57;;
78324;SDS011;67584;51.400;6.692;2023-12-20T13:09:20;8.15;;;4.05;;
78324;SDS011;67584;51.400;6.692;2023-12-20T13:11:48;14.52;;;6.80;;
78324;SDS011;67584;51.400;6.692;2023-12-20T13:14:14;9.38;;;4.50;;
78324;SDS011;67584;51.400;6.692;2023-12-20T13:16:41;11.13;;;5.97;;
78324;SDS011;67584;51.400;6.692;2023-12-20T13:19:07;7.30;;;4.00;;
78324;SDS011;67584;51.400;6.692;2023-12-20T13:21:33;8.85;;;4.68;;
78324;SDS011;67584;51.400;6.692;2023-12-20T13:23:59;8.73;;;4.78;;
78324;SDS011;67584;51.400;6.692;2023-12-20T13:26:25;11.45;;;4.72;;
78324;SDS011;67584;51.400;6.692;2023-12-20T13:28:50;5.43;;;3.92;;
78324;SDS011;67584;51.400;6.692;2023-12-20T13:31:16;7.97;;;5.18;;
78324;SDS011;67584;51.400;6.692;2023-12-20T13:33:41;6.00;;;4.10;;
78324;SDS011;67584;51.400;6.692;2023-12-20T13:36:07;7.80;;;4.30;;
78324;SDS011;67584;51.400;6.692;2023-12-20T13:38:33;8.32;;;4.55;;
78324;SDS011;67584;51.400;6.692;2023-12-20T13:40:59;12.88;;;4.72;;
78324;SDS011;67584;51.400;6.692;2023-12-20T13:43:25;10.80;;;5.60;;
78324;SDS011;67584;51.400;6.692;2023-12-20T13:45:50;9.32;;;4.55;;
78324;SDS011;67584;51.400;6.692;2023-12-20T13:48:16;5.72;;;4.20;;
78324;SDS011;67584;51.400;6.692;2023-12-20T13:50:42;9.85;;;6.47;;
78324;SDS011;67584;51.400;6.692;2023-12-20T13:53:07;13.80;;;5.47;;
78324;SDS011;67584;51.400;6.692;2023-12-20T13:55:33;7.95;;;4.75;;
78324;SDS011;67584;51.400;6.692;2023-12-20T13:57:59;10.63;;;5.65;;
78324;SDS011;67584;51.400;6.692;2023-12-20T14:00:25;11.13;;;4.75;;
78324;SDS011;67584;51.400;6.692;2023-12-20T14:02:50;10.63;;;4.85;;
78324;SDS011;67584;51.400;6.692;2023-12-20T14:05:16;15.32;;;5.13;;
78324;SDS011;67584;51.400;6.692;2023-12-20T14:07:45;4.78;;;3.25;;
78324;SDS011;67584;51.400;6.692;2023-12-20T14:10:11;7.85;;;4.07;;
78324;SDS011;67584;51.400;6.692;2023-12-20T14:12:41;11.60;;;5.68;;
78324;SDS011;67584;51.400;6.692;2023-12-20T14:15:07;9.68;;;5.30;;
78324;SDS011;67584;51.400;6.692;2023-12-20T14:17:38;10.98;;;4.88;;
78324;SDS011;67584;51.400;6.692;2023-12-20T14:20:05;11.05;;;4.97;;
78324;SDS011;67584;51.400;6.692;2023-12-20T14:22:32;8.13;;;4.32;;
78324;SDS011;67584;51.400;6.692;2023-12-20T14:24:58;7.45;;;4.95;;
78324;SDS011;67584;51.400;6.692;2023-12-20T14:27:23;8.13;;;5.65;;
78324;SDS011;67584;51.400;6.692;2023-12-20T14:29:55;10.75;;;5.40;;
78324;SDS011;67584;51.400;6.692;2023-12-20T14:32:21;8.40;;;4.53;;
78324;SDS011;67584;51.400;6.692;2023-12-20T14:34:47;7.22;;;3.63;;
78324;SDS011;67584;51.400;6.692;2023-12-20T14:37:12;5.97;;;3.90;;
78324;SDS011;67584;51.400;6.692;2023-12-20T14:39:39;7.68;;;4.28;;
78324;SDS011;67584;51.400;6.692;2023-12-20T14:42:09;5.90;;;4.18;;
78324;SDS011;67584;51.400;6.692;2023-12-20T14:44:38;7.72;;;4.28;;
78324;SDS011;67584;51.400;6.692;2023-12-20T14:47:06;8.30;;;4.32;;
78324;SDS011;67584;51.400;6.692;2023-12-20T14:49:31;7.38;;;4.50;;